sensor_id;sensor_type;location;lat;lon;timestamp;pressure;altitude;pressure_sealevel;temperature;humidity
11987;BME280;6053;51.382;6.768;2023-07-30T00:02:17;100609.56;;;19.38;100.00
11987;BME280;6053;51.382;6.768;2023-07-30T00:04:47;100602.09;;;20.48;100.00
11987;BME280;6053;51.382;6.768;2023-07-30T00:07:15;100599.53;;;20.33;100.00
11987;BME280;6053;51.382;6.768;2023-07-30T00:09:51;100614.75;;;21.68;100.00
11987;BME280;6053;51.382;6.768;2023-07-30T00:12:20;100595.63;;;20.72;100.00
11987;BME280;6053;51.382;6.768;2023-07-30T00:14:48;100601.19;;;21.42;100.00
11987;BME280;6053;51.382;6.768;2023-07-30T00:17:16;100608.00;;;21.83;100.00
11987;BME280;6053;51.382;6.768;2023-07-30T00:19:49;100616.47;;;22.24;100.00
11987;BME280;6053;51.382;6.768;2023-07-30T00:22:19;100610.09;;;21.91;100.00
11987;BME280;6053;51.382;6.768;2023-07-30T00:24:53;100606.84;;;22.11;100.00
11987;BME280;6053;51.382;6.768;2023-07-30T00:27:21;100607.38;;;22.00;100.00
11987;BME280;6053;51.382;6.768;2023-07-30T00:29:52;100609.00;;;21.46;100.00
11987;BME280;6053;51.382;6.768;2023-07-30T00:32:21;100606.16;;;20.61;100.00
11987;BME280;6053;51.382;6.768;2023-07-30T00:34:50;100600.78;;;19.50;100.00
11987;BME280;6053;51.382;6.768;2023-07-30T00:37:19;100606.84;;;19.86;100.00
11987;BME280;6053;51.382;6.768;2023-07-30T00:39:47;100610.94;;;20.61;100.00
11987;BME280;6053;51.382;6.768;2023-07-30T00:42:15;100613.13;;;21.34;100.00
11987;BME280;6053;51.382;6.768;2023-07-30T00:44:47;100614.88;;;21.77;100.00
11987;BME280;6053;51.382;6.768;2023-07-30T00:47:22;100615.59;;;21.82;100.00
11987;BME280;6053;51.382;6.768;2023-07-30T00:49:51;100611.22;;;21.76;100.00
11987;BME280;6053;51.382;6.768;2023-07-30T00:52:21;100613.69;;;21.50;100.00
11987;BME280;6053;51.382;6.768;2023-07-30T00:54:54;100614.88;;;21.91;100.00
11987;BME280;6053;51.382;6.768;2023-07-30T00:57:25;100618.34;;;22.15;100.00
11987;BME280;6053;51.382;6.768;2023-07-30T00:59:57;100607.84;;;20.62;100.00
11987;BME280;6053;51.382;6.768;2023-07-30T01:02:27;100619.94;;;21.47;100.00
11987;BME280;6053;51.382;6.768;2023-07-30T01:04:59;100621.13;;;22.01;100.00
11987;BME280;6053;51.382;6.768;2023-07-30T01:07:30;100630.59;;;22.19;100.00
11987;BME280;6053;51.382;6.768;2023-07-30T01:10:00;100623.09;;;22.42;100.00
11987;BME280;6053;51.382;6.768;2023-07-30T01:12:33;100629.75;;;22.32;100.00
11987;BME280;6053;51.382;6.768;2023-07-30T01:15:04;100619.25;;;22.38;100.00
11987;BME280;6053;51.382;6.768;2023-07-30T01:17:33;100626.94;;;22.05;100.00
11987;BME280;6053;51.382;6.768;2023-07-30T01:20:05;100626.94;;;21.91;100.00
11987;BME280;6053;51.382;6.768;2023-07-30T01:22:34;100628.38;;;22.02;100.00
11987;BME280;6053;51.382;6.768;2023-07-30T01:25:13;100633.03;;;21.65;100.00
11987;BME280;6053;51.382;6.768;2023-07-30T01:27:48;100633.88;;;21.66;100.00
11987;BME280;6053;51.382;6.768;2023-07-30T01:30:26;100635.66;;;21.89;100.00
11987;BME280;6053;51.382;6.768;2023-07-30T01:32:56;100638.59;;;21.84;100.00
11987;BME280;6053;51.382;6.768;2023-07-30T01:35:27;100643.38;;;21.70;100.00
11987;BME280;6053;51.382;6.768;2023-07-30T01:37:58;100644.00;;;21.95;100.00
11987;BME280;6053;51.382;6.768;2023-07-30T01:40:29;100653.16;;;22.00;100.00
11987;BME280;6053;51.382;6.768;2023-07-30T01:42:58;100634.44;;;20.41;100.00
11987;BME280;6053;51.382;6.768;2023-07-30T01:45:26;100647.16;;;20.76;100.00
11987;BME280;6053;51.382;6.768;2023-07-30T01:47:55;100656.22;;;18.69;100.00
11987;BME280;6053;51.382;6.768;2023-07-30T01:50:23;100664.47;;;18.40;100.00
11987;BME280;6053;51.382;6.768;2023-07-30T01:52:52;100663.31;;;18.51;100.00
11987;BME280;6053;51.382;6.768;2023-07-30T01:55:22;100659.19;;;19.57;100.00
11987;BME280;6053;51.382;6.768;2023-07-30T01:57:51;100656.66;;;19.89;100.00
11987;BME280;6053;51.382;6.768;2023-07-30T02:00:19;100669.19;;;19.68;100.00
11987;BME280;6053;51.382;6.768;2023-07-30T02:02:55;100649.56;;;19.04;100.00
11987;BME280;6053;51.382;6.768;2023-07-30T02:05:29;100649.25;;;19.45;100.00
11987;BME280;6053;51.382;6.768;2023-07-30T02:07:58;100651.25;;;19.40;100.00
11987;BME280;6053;51.382;6.768;2023-07-30T02:10:28;100644.44;;;18.77;100.00
11987;BME280;6053;51.382;6.768;2023-07-30T02:12:59;100648.31;;;20.08;100.00
11987;BME280;6053;51.382;6.768;2023-07-30T02:15:28;100647.50;;;20.51;100.00
11987;BME280;6053;51.382;6.768;2023-07-30T02:17:56;100658.66;;;20.93;100.00
11987;BME280;6053;51.382;6.768;2023-07-30T02:20:28;100664.41;;;21.02;100.00
11987;BME280;6053;51.382;6.768;2023-07-30T02:22:56;100657.38;;;20.86;100.00
11987;BME280;6053;51.382;6.768;2023-07-30T02:25:32;100658.72;;;21.26;100.00
11987;BME280;6053;51.382;6.768;2023-07-30T02:28:01;100660.22;;;21.37;100.00
11987;BME280;6053;51.382;6.768;2023-07-30T02:30:38;100653.00;;;21.31;100.00
11987;BME280;6053;51.382;6.768;2023-07-30T02:33:07;100651.69;;;21.42;100.00
11987;BME280;6053;51.382;6.768;2023-07-30T02:35:35;100649.28;;;21.69;100.00
11987;BME280;6053;51.382;6.768;2023-07-30T02:38:04;100657.66;;;21.55;100.00
11987;BME280;6053;51.382;6.768;2023-07-30T02:40:33;100653.66;;;20.90;100.00
11987;BME280;6053;51.382;6.768;2023-07-30T02:43:02;100659.50;;;20.94;100.00
11987;BME280;6053;51.382;6.768;2023-07-30T02:45:33;100655.03;;;21.45;100.00
11987;BME280;6053;51.382;6.768;2023-07-30T02:48:10;100656.84;;;21.03;100.00
11987;BME280;6053;51.382;6.768;2023-07-30T02:50:39;100653.78;;;21.18;100.00
11987;BME280;6053;51.382;6.768;2023-07-30T02:53:10;100659.03;;;20.87;100.00
11987;BME280;6053;51.382;6.768;2023-07-30T02:55:40;100655.69;;;20.85;100.00
11987;BME280;6053;51.382;6.768;2023-07-30T02:58:08;100666.31;;;21.07;100.00
11987;BME280;6053;51.382;6.768;2023-07-30T03:00:39;100664.56;;;20.92;100.00
11987;BME280;6053;51.382;6.768;2023-07-30T03:03:09;100659.38;;;21.18;100.00
11987;BME280;6053;51.382;6.768;2023-07-30T03:05:41;100661.88;;;21.38;100.00
11987;BME280;6053;51.382;6.768;2023-07-30T03:08:10;100663.50;;;21.07;100.00
11987;BME280;6053;51.382;6.768;2023-07-30T03:10:45;100656.31;;;21.01;100.00
11987;BME280;6053;51.382;6.768;2023-07-30T03:13:13;100660.16;;;21.05;100.00
11987;BME280;6053;51.382;6.768;2023-07-30T03:15:42;100658.88;;;19.92;100.00
11987;BME280;6053;51.382;6.768;2023-07-30T03:18:13;100661.53;;;19.44;100.00
11987;BME280;6053;51.382;6.768;2023-07-30T03:20:42;100654.50;;;20.48;100.00
11987;BME280;6053;51.382;6.768;2023-07-30T03:23:13;100664.13;;;20.42;100.00
11987;BME280;6053;51.382;6.768;2023-07-30T03:25:45;100668.59;;;19.42;100.00
11987;BME280;6053;51.382;6.768;2023-07-30T03:28:14;100672.88;;;19.29;100.00
11987;BME280;6053;51.382;6.768;2023-07-30T03:30:42;100673.78;;;19.53;100.00
11987;BME280;6053;51.382;6.768;2023-07-30T03:33:14;100664.84;;;19.81;100.00
11987;BME280;6053;51.382;6.768;2023-07-30T03:35:42;100659.84;;;20.49;100.00
11987;BME280;6053;51.382;6.768;2023-07-30T03:38:11;100674.28;;;20.14;100.00
11987;BME280;6053;51.382;6.768;2023-07-30T03:40:46;100676.78;;;19.91;100.00
11987;BME280;6053;51.382;6.768;2023-07-30T03:43:14;100685.63;;;19.74;100.00
11987;BME280;6053;51.382;6.768;2023-07-30T03:45:42;100690.69;;;19.38;100.00
11987;BME280;6053;51.382;6.768;2023-07-30T03:48:11;100692.34;;;20.02;100.00
11987;BME280;6053;51.382;6.768;2023-07-30T03:50:39;100689.16;;;19.22;100.00
11987;BME280;6053;51.382;6.768;2023-07-30T03:53:10;100691.66;;;18.84;100.00
11987;BME280;6053;51.382;6.768;2023-07-30T03:55:42;100687.94;;;18.39;100.00
11987;BME280;6053;51.382;6.768;2023-07-30T03:58:12;100696.63;;;18.92;100.00
11987;BME280;6053;51.382;6.768;2023-07-30T04:00:41;100687.28;;;17.67;100.00
11987;BME280;6053;51.382;6.768;2023-07-30T04:03:10;100692.06;;;19.06;100.00
11987;BME280;6053;51.382;6.768;2023-07-30T04:05:41;100693.63;;;18.13;100.00
11987;BME280;6053;51.382;6.768;2023-07-30T04:08:09;100686.56;;;18.36;100.00
11987;BME280;6053;51.382;6.768;2023-07-30T04:10:38;100692.47;;;18.90;100.00
11987;BME280;6053;51.382;6.768;2023-07-30T04:13:06;100689.75;;;18.04;100.00
11987;BME280;6053;51.382;6.768;2023-07-30T04:15:36;100690.88;;;18.73;100.00
11987;BME280;6053;51.382;6.768;2023-07-30T04:18:08;100683.75;;;19.36;100.00
11987;BME280;6053;51.382;6.768;2023-07-30T04:20:39;100696.38;;;18.29;100.00
11987;BME280;6053;51.382;6.768;2023-07-30T04:23:10;100694.25;;;17.90;100.00
11987;BME280;6053;51.382;6.768;2023-07-30T04:25:43;100689.72;;;18.14;100.00
11987;BME280;6053;51.382;6.768;2023-07-30T04:28:14;100694.75;;;18.07;100.00
11987;BME280;6053;51.382;6.768;2023-07-30T04:30:47;100687.03;;;18.54;100.00
11987;BME280;6053;51.382;6.768;2023-07-30T04:33:16;100698.22;;;18.54;100.00
11987;BME280;6053;51.382;6.768;2023-07-30T04:35:45;100691.22;;;17.56;100.00
11987;BME280;6053;51.382;6.768;2023-07-30T04:38:19;100692.16;;;16.53;100.00
11987;BME280;6053;51.382;6.768;2023-07-30T04:40:51;100695.19;;;18.45;100.00
11987;BME280;6053;51.382;6.768;2023-07-30T04:43:19;100692.75;;;19.62;100.00
11987;BME280;6053;51.382;6.768;2023-07-30T04:45:57;100698.22;;;19.03;100.00
11987;BME280;6053;51.382;6.768;2023-07-30T04:48:28;100701.16;;;18.88;100.00
11987;BME280;6053;51.382;6.768;2023-07-30T04:51:00;100697.88;;;17.80;100.00
11987;BME280;6053;51.382;6.768;2023-07-30T04:53:31;100695.28;;;18.25;100.00
11987;BME280;6053;51.382;6.768;2023-07-30T04:55:59;100703.09;;;18.88;100.00
11987;BME280;6053;51.382;6.768;2023-07-30T04:58:33;100699.53;;;17.97;100.00
11987;BME280;6053;51.382;6.768;2023-07-30T05:01:03;100705.34;;;18.16;100.00
11987;BME280;6053;51.382;6.768;2023-07-30T05:03:31;100697.06;;;17.59;100.00
11987;BME280;6053;51.382;6.768;2023-07-30T05:06:06;100708.66;;;18.28;100.00
11987;BME280;6053;51.382;6.768;2023-07-30T05:08:48;100705.00;;;18.32;100.00
11987;BME280;6053;51.382;6.768;2023-07-30T05:11:19;100707.09;;;17.40;100.00
11987;BME280;6053;51.382;6.768;2023-07-30T05:13:49;100703.50;;;17.44;100.00
11987;BME280;6053;51.382;6.768;2023-07-30T05:16:22;100701.47;;;16.79;100.00
11987;BME280;6053;51.382;6.768;2023-07-30T05:18:52;100707.25;;;16.67;100.00
11987;BME280;6053;51.382;6.768;2023-07-30T05:21:21;100700.13;;;17.83;100.00
11987;BME280;6053;51.382;6.768;2023-07-30T05:23:50;100704.88;;;17.32;100.00
11987;BME280;6053;51.382;6.768;2023-07-30T05:26:30;100698.13;;;17.99;100.00
11987;BME280;6053;51.382;6.768;2023-07-30T05:29:02;100702.31;;;18.02;100.00
11987;BME280;6053;51.382;6.768;2023-07-30T05:31:35;100703.88;;;18.93;100.00
11987;BME280;6053;51.382;6.768;2023-07-30T05:34:04;100705.16;;;18.61;100.00
11987;BME280;6053;51.382;6.768;2023-07-30T05:36:35;100708.06;;;18.96;100.00
11987;BME280;6053;51.382;6.768;2023-07-30T05:39:10;100712.09;;;18.74;100.00
11987;BME280;6053;51.382;6.768;2023-07-30T05:41:38;100709.59;;;19.51;100.00
11987;BME280;6053;51.382;6.768;2023-07-30T05:44:07;100711.38;;;18.48;100.00
11987;BME280;6053;51.382;6.768;2023-07-30T05:46:40;100706.84;;;17.52;100.00
11987;BME280;6053;51.382;6.768;2023-07-30T05:49:11;100702.09;;;17.57;100.00
11987;BME280;6053;51.382;6.768;2023-07-30T05:51:41;100711.56;;;17.82;100.00
11987;BME280;6053;51.382;6.768;2023-07-30T05:54:16;100712.03;;;18.20;100.00
11987;BME280;6053;51.382;6.768;2023-07-30T05:56:45;100709.28;;;18.09;100.00
11987;BME280;6053;51.382;6.768;2023-07-30T05:59:16;100710.00;;;18.41;100.00
11987;BME280;6053;51.382;6.768;2023-07-30T06:01:49;100705.63;;;18.84;100.00
11987;BME280;6053;51.382;6.768;2023-07-30T06:04:17;100705.75;;;18.53;100.00
11987;BME280;6053;51.382;6.768;2023-07-30T06:06:53;100713.53;;;17.92;100.00
11987;BME280;6053;51.382;6.768;2023-07-30T06:09:25;100720.75;;;17.98;100.00
11987;BME280;6053;51.382;6.768;2023-07-30T06:11:54;100709.66;;;17.77;100.00
11987;BME280;6053;51.382;6.768;2023-07-30T06:14:32;100719.91;;;18.02;100.00
11987;BME280;6053;51.382;6.768;2023-07-30T06:17:05;100718.25;;;17.55;100.00
11987;BME280;6053;51.382;6.768;2023-07-30T06:19:39;100721.72;;;18.48;100.00
11987;BME280;6053;51.382;6.768;2023-07-30T06:22:11;100725.16;;;18.89;100.00
11987;BME280;6053;51.382;6.768;2023-07-30T06:24:39;100737.47;;;18.88;100.00
11987;BME280;6053;51.382;6.768;2023-07-30T06:27:07;100724.03;;;18.25;100.00
11987;BME280;6053;51.382;6.768;2023-07-30T06:29:39;100732.44;;;18.10;100.00
11987;BME280;6053;51.382;6.768;2023-07-30T06:32:09;100724.16;;;16.45;100.00
11987;BME280;6053;51.382;6.768;2023-07-30T06:34:44;100721.88;;;17.25;100.00
11987;BME280;6053;51.382;6.768;2023-07-30T06:37:13;100723.25;;;18.04;100.00
11987;BME280;6053;51.382;6.768;2023-07-30T06:39:52;100729.16;;;17.82;100.00
11987;BME280;6053;51.382;6.768;2023-07-30T06:42:23;100733.03;;;17.35;100.00
11987;BME280;6053;51.382;6.768;2023-07-30T06:44:55;100730.28;;;17.81;100.00
11987;BME280;6053;51.382;6.768;2023-07-30T06:47:28;100728.88;;;17.58;100.00
11987;BME280;6053;51.382;6.768;2023-07-30T06:49:56;100736.66;;;17.97;100.00
11987;BME280;6053;51.382;6.768;2023-07-30T06:52:24;100738.91;;;17.80;100.00
11987;BME280;6053;51.382;6.768;2023-07-30T06:54:53;100737.53;;;18.78;100.00
11987;BME280;6053;51.382;6.768;2023-07-30T06:57:21;100738.56;;;18.92;100.00
11987;BME280;6053;51.382;6.768;2023-07-30T06:59:55;100746.91;;;18.97;100.00
11987;BME280;6053;51.382;6.768;2023-07-30T07:02:26;100750.38;;;18.79;100.00
11987;BME280;6053;51.382;6.768;2023-07-30T07:04:58;100749.22;;;17.49;100.00
11987;BME280;6053;51.382;6.768;2023-07-30T07:07:33;100749.41;;;18.34;100.00
11987;BME280;6053;51.382;6.768;2023-07-30T07:10:05;100751.66;;;18.27;100.00
11987;BME280;6053;51.382;6.768;2023-07-30T07:12:34;100757.03;;;17.67;100.00
11987;BME280;6053;51.382;6.768;2023-07-30T07:15:05;100752.72;;;18.46;100.00
11987;BME280;6053;51.382;6.768;2023-07-30T07:17:37;100741.63;;;18.21;100.00
11987;BME280;6053;51.382;6.768;2023-07-30T07:20:18;100760.47;;;18.75;100.00
11987;BME280;6053;51.382;6.768;2023-07-30T07:22:46;100755.56;;;18.21;100.00
11987;BME280;6053;51.382;6.768;2023-07-30T07:25:15;100753.94;;;18.09;100.00
11987;BME280;6053;51.382;6.768;2023-07-30T07:27:55;100747.69;;;18.48;100.00
11987;BME280;6053;51.382;6.768;2023-07-30T07:30:23;100755.72;;;18.60;100.00
11987;BME280;6053;51.382;6.768;2023-07-30T07:32:57;100762.63;;;18.88;100.00
11987;BME280;6053;51.382;6.768;2023-07-30T07:35:26;100756.50;;;18.81;100.00
11987;BME280;6053;51.382;6.768;2023-07-30T07:37:54;100763.88;;;18.51;100.00
11987;BME280;6053;51.382;6.768;2023-07-30T07:40:25;100767.53;;;19.12;100.00
11987;BME280;6053;51.382;6.768;2023-07-30T07:42:55;100754.44;;;18.32;100.00
11987;BME280;6053;51.382;6.768;2023-07-30T07:45:26;100767.09;;;18.89;100.00
11987;BME280;6053;51.382;6.768;2023-07-30T07:47:56;100768.41;;;19.46;100.00
11987;BME280;6053;51.382;6.768;2023-07-30T07:50:24;100767.91;;;19.78;100.00
11987;BME280;6053;51.382;6.768;2023-07-30T07:52:53;100778.59;;;18.82;100.00
11987;BME280;6053;51.382;6.768;2023-07-30T07:55:23;100770.84;;;19.19;100.00
11987;BME280;6053;51.382;6.768;2023-07-30T07:57:57;100764.19;;;19.10;100.00
11987;BME280;6053;51.382;6.768;2023-07-30T08:00:26;100776.56;;;18.98;100.00
11987;BME280;6053;51.382;6.768;2023-07-30T08:02:56;100775.44;;;18.94;100.00
11987;BME280;6053;51.382;6.768;2023-07-30T08:05:27;100778.50;;;18.98;100.00
11987;BME280;6053;51.382;6.768;2023-07-30T08:07:56;100782.09;;;19.08;100.00
11987;BME280;6053;51.382;6.768;2023-07-30T08:10:25;100781.44;;;18.57;100.00
11987;BME280;6053;51.382;6.768;2023-07-30T08:12:53;100778.88;;;18.71;100.00
11987;BME280;6053;51.382;6.768;2023-07-30T08:15:33;100781.16;;;19.23;100.00
11987;BME280;6053;51.382;6.768;2023-07-30T08:18:06;100776.56;;;19.77;100.00
11987;BME280;6053;51.382;6.768;2023-07-30T08:20:36;100775.38;;;19.49;100.00
11987;BME280;6053;51.382;6.768;2023-07-30T08:23:11;100773.09;;;19.17;100.00
11987;BME280;6053;51.382;6.768;2023-07-30T08:25:42;100770.22;;;19.27;100.00
11987;BME280;6053;51.382;6.768;2023-07-30T08:28:13;100782.50;;;19.31;100.00
11987;BME280;6053;51.382;6.768;2023-07-30T08:30:45;100776.97;;;19.60;100.00
11987;BME280;6053;51.382;6.768;2023-07-30T08:33:15;100769.59;;;19.74;100.00
11987;BME280;6053;51.382;6.768;2023-07-30T08:35:43;100783.81;;;19.83;100.00
11987;BME280;6053;51.382;6.768;2023-07-30T08:38:17;100783.19;;;19.13;100.00
11987;BME280;6053;51.382;6.768;2023-07-30T08:40:46;100782.50;;;20.29;100.00
11987;BME280;6053;51.382;6.768;2023-07-30T08:43:14;100779.28;;;19.08;100.00
11987;BME280;6053;51.382;6.768;2023-07-30T08:45:49;100788.41;;;20.27;100.00
11987;BME280;6053;51.382;6.768;2023-07-30T08:48:18;100780.81;;;20.04;100.00
11987;BME280;6053;51.382;6.768;2023-07-30T08:50:48;100780.81;;;19.35;100.00
11987;BME280;6053;51.382;6.768;2023-07-30T08:53:18;100785.03;;;19.72;100.00
11987;BME280;6053;51.382;6.768;2023-07-30T08:55:47;100786.50;;;19.93;100.00
11987;BME280;6053;51.382;6.768;2023-07-30T08:58:16;100790.59;;;20.06;100.00
11987;BME280;6053;51.382;6.768;2023-07-30T09:00:49;100797.56;;;19.80;100.00
11987;BME280;6053;51.382;6.768;2023-07-30T09:03:21;100794.19;;;20.65;100.00
11987;BME280;6053;51.382;6.768;2023-07-30T09:05:53;100799.47;;;20.90;100.00
11987;BME280;6053;51.382;6.768;2023-07-30T09:08:25;100803.50;;;21.98;100.00
11987;BME280;6053;51.382;6.768;2023-07-30T09:11:09;100804.13;;;21.76;100.00
11987;BME280;6053;51.382;6.768;2023-07-30T09:13:40;100798.09;;;20.88;100.00
11987;BME280;6053;51.382;6.768;2023-07-30T09:16:09;100803.78;;;20.59;100.00
11987;BME280;6053;51.382;6.768;2023-07-30T09:18:45;100808.63;;;21.39;100.00
11987;BME280;6053;51.382;6.768;2023-07-30T09:21:36;100807.94;;;21.66;100.00
11987;BME280;6053;51.382;6.768;2023-07-30T09:24:07;100810.38;;;21.35;100.00
11987;BME280;6053;51.382;6.768;2023-07-30T09:26:46;100817.44;;;23.32;100.00
11987;BME280;6053;51.382;6.768;2023-07-30T09:29:15;100824.66;;;22.83;100.00
11987;BME280;6053;51.382;6.768;2023-07-30T09:31:46;100817.75;;;22.20;100.00
11987;BME280;6053;51.382;6.768;2023-07-30T09:34:17;100819.41;;;22.21;100.00
11987;BME280;6053;51.382;6.768;2023-07-30T09:36:47;100807.31;;;21.31;100.00
11987;BME280;6053;51.382;6.768;2023-07-30T09:39:21;100817.28;;;21.42;100.00
11987;BME280;6053;51.382;6.768;2023-07-30T09:41:51;100823.09;;;21.84;100.00
11987;BME280;6053;51.382;6.768;2023-07-30T09:44:20;100820.38;;;22.11;100.00
11987;BME280;6053;51.382;6.768;2023-07-30T09:46:50;100822.97;;;22.08;100.00
11987;BME280;6053;51.382;6.768;2023-07-30T09:49:23;100826.19;;;22.34;100.00
11987;BME280;6053;51.382;6.768;2023-07-30T09:51:53;100815.78;;;22.48;100.00
11987;BME280;6053;51.382;6.768;2023-07-30T09:54:27;100815.38;;;23.10;100.00
11987;BME280;6053;51.382;6.768;2023-07-30T09:56:56;100815.59;;;24.09;100.00
11987;BME280;6053;51.382;6.768;2023-07-30T09:59:28;100816.50;;;23.59;100.00
11987;BME280;6053;51.382;6.768;2023-07-30T10:01:57;100806.94;;;23.10;100.00
11987;BME280;6053;51.382;6.768;2023-07-30T10:04:31;100807.47;;;22.85;100.00
11987;BME280;6053;51.382;6.768;2023-07-30T10:07:04;100803.34;;;23.91;100.00
11987;BME280;6053;51.382;6.768;2023-07-30T10:09:40;100800.59;;;23.55;100.00
11987;BME280;6053;51.382;6.768;2023-07-30T10:12:12;100787.63;;;23.31;100.00
11987;BME280;6053;51.382;6.768;2023-07-30T10:14:42;100793.09;;;22.58;100.00
11987;BME280;6053;51.382;6.768;2023-07-30T10:17:11;100798.91;;;21.69;100.00
11987;BME280;6053;51.382;6.768;2023-07-30T10:19:47;100811.50;;;21.72;100.00
11987;BME280;6053;51.382;6.768;2023-07-30T10:22:24;100806.47;;;21.12;100.00
11987;BME280;6053;51.382;6.768;2023-07-30T10:25:00;100801.13;;;20.73;100.00
11987;BME280;6053;51.382;6.768;2023-07-30T10:27:37;100807.41;;;21.26;100.00
11987;BME280;6053;51.382;6.768;2023-07-30T10:30:16;100800.97;;;21.63;100.00
11987;BME280;6053;51.382;6.768;2023-07-30T10:33:01;100812.34;;;22.05;100.00
11987;BME280;6053;51.382;6.768;2023-07-30T10:35:55;100807.09;;;23.41;100.00
11987;BME280;6053;51.382;6.768;2023-07-30T10:38:28;100812.53;;;23.38;100.00
11987;BME280;6053;51.382;6.768;2023-07-30T10:41:06;100798.50;;;23.10;100.00
11987;BME280;6053;51.382;6.768;2023-07-30T10:43:39;100812.09;;;23.67;100.00
11987;BME280;6053;51.382;6.768;2023-07-30T10:46:11;100817.00;;;23.39;100.00
11987;BME280;6053;51.382;6.768;2023-07-30T10:48:41;100808.66;;;22.97;100.00
11987;BME280;6053;51.382;6.768;2023-07-30T10:51:13;100802.84;;;21.87;100.00
11987;BME280;6053;51.382;6.768;2023-07-30T10:53:42;100818.69;;;22.43;100.00
11987;BME280;6053;51.382;6.768;2023-07-30T10:56:23;100819.19;;;22.18;100.00
11987;BME280;6053;51.382;6.768;2023-07-30T10:58:53;100810.03;;;21.93;100.00
11987;BME280;6053;51.382;6.768;2023-07-30T11:01:25;100811.31;;;22.01;100.00
11987;BME280;6053;51.382;6.768;2023-07-30T11:03:54;100814.19;;;22.28;100.00
11987;BME280;6053;51.382;6.768;2023-07-30T11:06:25;100820.78;;;23.20;100.00
11987;BME280;6053;51.382;6.768;2023-07-30T11:08:53;100805.59;;;23.21;100.00
11987;BME280;6053;51.382;6.768;2023-07-30T11:11:22;100815.78;;;22.34;100.00
11987;BME280;6053;51.382;6.768;2023-07-30T11:13:52;100814.56;;;21.56;100.00
11987;BME280;6053;51.382;6.768;2023-07-30T11:16:20;100820.84;;;22.00;100.00
11987;BME280;6053;51.382;6.768;2023-07-30T11:18:49;100820.38;;;22.86;100.00
11987;BME280;6053;51.382;6.768;2023-07-30T11:21:20;100827.28;;;22.19;100.00
11987;BME280;6053;51.382;6.768;2023-07-30T11:23:53;100826.84;;;22.58;100.00
11987;BME280;6053;51.382;6.768;2023-07-30T11:26:21;100823.25;;;22.25;100.00
11987;BME280;6053;51.382;6.768;2023-07-30T11:28:50;100828.50;;;22.73;100.00
11987;BME280;6053;51.382;6.768;2023-07-30T11:31:19;100818.03;;;22.19;100.00
11987;BME280;6053;51.382;6.768;2023-07-30T11:33:49;100821.50;;;21.97;100.00
11987;BME280;6053;51.382;6.768;2023-07-30T11:36:22;100832.88;;;22.52;100.00
11987;BME280;6053;51.382;6.768;2023-07-30T11:39:01;100820.59;;;23.03;100.00
11987;BME280;6053;51.382;6.768;2023-07-30T11:41:30;100831.09;;;22.70;100.00
11987;BME280;6053;51.382;6.768;2023-07-30T11:43:58;100823.25;;;22.25;100.00
11987;BME280;6053;51.382;6.768;2023-07-30T11:46:27;100831.22;;;22.78;100.00
11987;BME280;6053;51.382;6.768;2023-07-30T11:49:17;100818.72;;;22.57;100.00
11987;BME280;6053;51.382;6.768;2023-07-30T11:51:51;100837.31;;;22.39;100.00
11987;BME280;6053;51.382;6.768;2023-07-30T11:54:22;100833.16;;;22.36;100.00
11987;BME280;6053;51.382;6.768;2023-07-30T11:56:57;100844.00;;;22.10;100.00
11987;BME280;6053;51.382;6.768;2023-07-30T11:59:25;100827.88;;;22.63;100.00
11987;BME280;6053;51.382;6.768;2023-07-30T12:01:54;100835.69;;;22.66;100.00
11987;BME280;6053;51.382;6.768;2023-07-30T12:04:22;100833.75;;;22.94;100.00
11987;BME280;6053;51.382;6.768;2023-07-30T12:07:00;100842.78;;;22.91;100.00
11987;BME280;6053;51.382;6.768;2023-07-30T12:09:35;100837.69;;;22.79;100.00
11987;BME280;6053;51.382;6.768;2023-07-30T12:12:06;100843.84;;;22.67;100.00
11987;BME280;6053;51.382;6.768;2023-07-30T12:14:53;100837.13;;;22.77;100.00
11987;BME280;6053;51.382;6.768;2023-07-30T12:17:25;100848.72;;;22.75;100.00
11987;BME280;6053;51.382;6.768;2023-07-30T12:19:53;100846.31;;;22.55;100.00
11987;BME280;6053;51.382;6.768;2023-07-30T12:22:22;100852.72;;;22.28;100.00
11987;BME280;6053;51.382;6.768;2023-07-30T12:24:52;100841.75;;;21.94;100.00
11987;BME280;6053;51.382;6.768;2023-07-30T12:27:20;100838.72;;;22.97;100.00
11987;BME280;6053;51.382;6.768;2023-07-30T12:29:49;100839.13;;;22.76;100.00
11987;BME280;6053;51.382;6.768;2023-07-30T12:32:17;100841.78;;;22.26;100.00
11987;BME280;6053;51.382;6.768;2023-07-30T12:34:46;100835.72;;;22.19;100.00
11987;BME280;6053;51.382;6.768;2023-07-30T12:37:15;100847.44;;;22.40;100.00
11987;BME280;6053;51.382;6.768;2023-07-30T12:39:43;100849.59;;;22.29;100.00
11987;BME280;6053;51.382;6.768;2023-07-30T12:42:13;100873.69;;;22.49;100.00
11987;BME280;6053;51.382;6.768;2023-07-30T12:44:48;100866.63;;;22.19;100.00
11987;BME280;6053;51.382;6.768;2023-07-30T12:47:17;100858.31;;;22.74;100.00
11987;BME280;6053;51.382;6.768;2023-07-30T12:49:47;100851.69;;;22.98;100.00
11987;BME280;6053;51.382;6.768;2023-07-30T12:52:16;100854.06;;;23.68;100.00
11987;BME280;6053;51.382;6.768;2023-07-30T12:54:47;100855.50;;;23.16;100.00
11987;BME280;6053;51.382;6.768;2023-07-30T12:57:18;100863.13;;;23.01;100.00
11987;BME280;6053;51.382;6.768;2023-07-30T12:59:46;100866.31;;;22.67;100.00
11987;BME280;6053;51.382;6.768;2023-07-30T13:02:15;100863.97;;;23.02;100.00
11987;BME280;6053;51.382;6.768;2023-07-30T13:04:44;100867.09;;;23.00;100.00
11987;BME280;6053;51.382;6.768;2023-07-30T13:07:15;100862.69;;;22.80;100.00
11987;BME280;6053;51.382;6.768;2023-07-30T13:09:46;100869.66;;;22.83;100.00
11987;BME280;6053;51.382;6.768;2023-07-30T13:12:16;100855.16;;;22.76;100.00